Portada
METAR-TAF:

METAR-TAF

Aeroports :

Macas, Equador

latitud: 02-17-57-S, longitud: 078-07-15-W, altitud: 1052 m

Observació

L'informe es va fer fa 5 hores i 56 minuts, a les 23:00 UTC
Vent 8 kt del Nord-Est
Temperatura 23°C
Humitat 78%
Pressió 1017 hPa
Visibilitat: 4000 m
Escasses núvols a una alçada de 1600 ft, Cumulonimbus.
Cel ennuvolat a una alçada de 2000 ft
Cel ennuvolat a una alçada de 9000 ft
tempesta, pluja

METAR: SEMC 212300Z 04008KT 9999 4000E -TSRA FEW016CB BKN020 BKN090 23/19 Q1017 RMK A3004

Hora: 23:56 (04:56 UTC)


TAF: manca

Observacions i pronòstics meteorològics de més de 4000 aeroports (METAR i TAF).

Les estacions disponibles són els punts grocs i vermells al mapa.

Posi el ratolí al punt desitjat per veure el nom de l'estació.

Feu clic per veure les observacions i els pronòstics meteorològics.

Per canviar el mapa: feu clic els botons verds amb una creu de color negre per apropar; al botó verd amb un guió per allunyar la imatge; o en les fletxes verdes per a mapes adjacents.


METAR-TAF: